Дата Пункты Температура Давл., мм. Влажн., % Ветер Погодные явления
Воздуха Воды Направл. Скорость
08.12.17 02:00 Одесса 3.0 8.0 761 89 З 1 02 часа
07.12.17 11:00 Одесса 6.0 8.0 761 81 З 2 23 часа
07.12.17 08:00 Одесса 7.0 8.0 761 72 З 2 20 часов
07.12.17 05:00 Одесса 7.0 8.0 761 79 З 3 17 часов
07.12.17 02:00 Одесса 7.0 8.0 760 77 З 2 14 часов
07.12.17 11:00 Одесса 7.0 8.0 761 77 С-З 4 11 часов
07.12.17 08:00 Одесса 5.0 8.0 760 81 З 6 08 часов
07.12.17 05:00 Одесса 6.0 7.0 759 78 С-З 3 05 часов
07.12.17 02:00 Одесса 5.0 7.0 759 85 З 4 02 часа
06.12.17 11:00 Одесса 4.0 7.0 759 91 З 2 23 часа
06.12.17 08:00 Одесса 4.0 7.0 759 94 З 4 20 часов
06.12.17 05:00 Одесса 4.0 7.0 759 88 З 4 17 часов
06.12.17 02:00 Одесса 4.0 7.0 759 84 З 4 14 часов
06.12.17 11:00 Одесса 3.0 7.0 761 74 З 3 11 часов
06.12.17 08:00 Одесса -1.0 7.0 762 90 З 2 08 часов
05.12.17 11:00 Одесса 2.0 7.0 763 79 С-З 4 23 часа
05.12.17 08:00 Одесса 3.0 7.0 762 82 С-З 2 20 часов
05.12.17 05:00 Одесса 3.0 7.0 761 76 З 2 17 часов
05.12.17 02:00 Одесса 5.0 7.0 761 68 С-З 4 14 часов
05.12.17 11:00 Одесса 5.0 7.0 761 69 З 3 11 часов
Количество строк
1 2 3 4 5 6 7 8 9 10
Page 3 of 305